sensor_id;sensor_type;location;lat;lon;timestamp;P1;durP1;ratioP1;P2;durP2;ratioP2
60436;SDS011;46289;51.992;4.498;2023-06-10T00:01:03;18.35;;;12.90;;
60436;SDS011;46289;51.992;4.498;2023-06-10T00:03:08;16.77;;;12.27;;
60436;SDS011;46289;51.992;4.498;2023-06-10T00:05:19;16.77;;;11.30;;
60436;SDS011;46289;51.992;4.498;2023-06-10T00:07:24;19.35;;;13.43;;
60436;SDS011;46289;51.992;4.498;2023-06-10T00:09:29;16.05;;;12.15;;
60436;SDS011;46289;51.992;4.498;2023-06-10T00:11:34;17.40;;;12.20;;
60436;SDS011;46289;51.992;4.498;2023-06-10T00:13:41;15.23;;;12.10;;
60436;SDS011;46289;51.992;4.498;2023-06-10T00:15:46;16.95;;;12.02;;
60436;SDS011;46289;51.992;4.498;2023-06-10T00:17:55;18.10;;;11.70;;
60436;SDS011;46289;51.992;4.498;2023-06-10T00:20:00;15.68;;;12.15;;
60436;SDS011;46289;51.992;4.498;2023-06-10T00:22:06;14.02;;;11.05;;
60436;SDS011;46289;51.992;4.498;2023-06-10T00:24:12;15.63;;;11.68;;
60436;SDS011;46289;51.992;4.498;2023-06-10T00:26:18;14.13;;;12.00;;
60436;SDS011;46289;51.992;4.498;2023-06-10T00:28:23;16.00;;;11.93;;
60436;SDS011;46289;51.992;4.498;2023-06-10T00:30:31;16.65;;;11.57;;
60436;SDS011;46289;51.992;4.498;2023-06-10T00:32:36;17.63;;;11.40;;
60436;SDS011;46289;51.992;4.498;2023-06-10T00:34:42;15.57;;;11.45;;
60436;SDS011;46289;51.992;4.498;2023-06-10T00:36:47;16.48;;;12.00;;
60436;SDS011;46289;51.992;4.498;2023-06-10T00:38:53;14.45;;;11.13;;
60436;SDS011;46289;51.992;4.498;2023-06-10T00:40:58;14.10;;;11.23;;
60436;SDS011;46289;51.992;4.498;2023-06-10T00:43:03;14.93;;;11.82;;
60436;SDS011;46289;51.992;4.498;2023-06-10T00:45:09;18.00;;;11.90;;
60436;SDS011;46289;51.992;4.498;2023-06-10T00:47:17;14.48;;;10.75;;
60436;SDS011;46289;51.992;4.498;2023-06-10T00:49:23;14.43;;;10.98;;
60436;SDS011;46289;51.992;4.498;2023-06-10T00:51:29;14.50;;;10.98;;
60436;SDS011;46289;51.992;4.498;2023-06-10T00:53:34;14.70;;;11.35;;
60436;SDS011;46289;51.992;4.498;2023-06-10T00:55:41;14.48;;;11.07;;
60436;SDS011;46289;51.992;4.498;2023-06-10T00:57:46;13.05;;;10.55;;
60436;SDS011;46289;51.992;4.498;2023-06-10T00:59:55;17.17;;;11.50;;
60436;SDS011;46289;51.992;4.498;2023-06-10T01:02:01;15.38;;;11.18;;
60436;SDS011;46289;51.992;4.498;2023-06-10T01:04:11;14.75;;;10.57;;
60436;SDS011;46289;51.992;4.498;2023-06-10T01:06:24;17.40;;;11.32;;
60436;SDS011;46289;51.992;4.498;2023-06-10T01:08:44;14.43;;;11.10;;
60436;SDS011;46289;51.992;4.498;2023-06-10T01:10:59;14.77;;;10.80;;
60436;SDS011;46289;51.992;4.498;2023-06-10T01:13:07;15.48;;;10.90;;
60436;SDS011;46289;51.992;4.498;2023-06-10T01:15:15;13.52;;;10.30;;
60436;SDS011;46289;51.992;4.498;2023-06-10T01:17:21;16.73;;;12.10;;
60436;SDS011;46289;51.992;4.498;2023-06-10T01:19:32;17.38;;;11.38;;
60436;SDS011;46289;51.992;4.498;2023-06-10T01:21:40;14.57;;;10.57;;
60436;SDS011;46289;51.992;4.498;2023-06-10T01:23:51;17.48;;;10.93;;
60436;SDS011;46289;51.992;4.498;2023-06-10T01:25:58;15.50;;;10.70;;
60436;SDS011;46289;51.992;4.498;2023-06-10T01:28:10;13.70;;;10.32;;
60436;SDS011;46289;51.992;4.498;2023-06-10T01:30:19;16.77;;;10.73;;
60436;SDS011;46289;51.992;4.498;2023-06-10T01:32:34;15.32;;;10.65;;
60436;SDS011;46289;51.992;4.498;2023-06-10T01:34:47;17.38;;;11.43;;
60436;SDS011;46289;51.992;4.498;2023-06-10T01:36:57;15.90;;;10.40;;
60436;SDS011;46289;51.992;4.498;2023-06-10T01:39:03;15.02;;;10.23;;
60436;SDS011;46289;51.992;4.498;2023-06-10T01:41:09;14.82;;;10.93;;
60436;SDS011;46289;51.992;4.498;2023-06-10T01:43:16;16.48;;;11.10;;
60436;SDS011;46289;51.992;4.498;2023-06-10T01:45:23;15.77;;;11.57;;
60436;SDS011;46289;51.992;4.498;2023-06-10T01:47:28;15.85;;;11.25;;
60436;SDS011;46289;51.992;4.498;2023-06-10T01:49:34;16.55;;;10.65;;
60436;SDS011;46289;51.992;4.498;2023-06-10T01:51:39;15.30;;;10.00;;
60436;SDS011;46289;51.992;4.498;2023-06-10T01:53:46;15.05;;;10.50;;
60436;SDS011;46289;51.992;4.498;2023-06-10T01:55:52;14.63;;;10.60;;
60436;SDS011;46289;51.992;4.498;2023-06-10T01:57:57;14.40;;;10.00;;
60436;SDS011;46289;51.992;4.498;2023-06-10T02:00:02;13.32;;;9.35;;
60436;SDS011;46289;51.992;4.498;2023-06-10T02:02:08;13.70;;;10.15;;
60436;SDS011;46289;51.992;4.498;2023-06-10T02:04:12;18.23;;;10.23;;
60436;SDS011;46289;51.992;4.498;2023-06-10T02:06:18;14.25;;;9.18;;
60436;SDS011;46289;51.992;4.498;2023-06-10T02:08:23;17.77;;;10.10;;
60436;SDS011;46289;51.992;4.498;2023-06-10T02:10:31;13.30;;;9.27;;
60436;SDS011;46289;51.992;4.498;2023-06-10T02:12:36;14.85;;;9.23;;
60436;SDS011;46289;51.992;4.498;2023-06-10T02:14:42;16.55;;;9.40;;
60436;SDS011;46289;51.992;4.498;2023-06-10T02:16:47;14.32;;;9.32;;
60436;SDS011;46289;51.992;4.498;2023-06-10T02:18:53;16.45;;;9.55;;
60436;SDS011;46289;51.992;4.498;2023-06-10T02:20:59;14.23;;;9.30;;
60436;SDS011;46289;51.992;4.498;2023-06-10T02:23:04;14.90;;;8.85;;
60436;SDS011;46289;51.992;4.498;2023-06-10T02:25:09;14.95;;;8.90;;
60436;SDS011;46289;51.992;4.498;2023-06-10T02:27:17;14.90;;;9.05;;
60436;SDS011;46289;51.992;4.498;2023-06-10T02:29:23;17.52;;;9.60;;
60436;SDS011;46289;51.992;4.498;2023-06-10T02:31:28;15.05;;;8.73;;
60436;SDS011;46289;51.992;4.498;2023-06-10T02:33:37;14.85;;;9.35;;
60436;SDS011;46289;51.992;4.498;2023-06-10T02:35:43;15.63;;;9.32;;
60436;SDS011;46289;51.992;4.498;2023-06-10T02:37:48;18.10;;;10.20;;
60436;SDS011;46289;51.992;4.498;2023-06-10T02:39:55;17.30;;;9.38;;
60436;SDS011;46289;51.992;4.498;2023-06-10T02:42:00;16.23;;;9.45;;
60436;SDS011;46289;51.992;4.498;2023-06-10T02:44:08;14.30;;;8.35;;
60436;SDS011;46289;51.992;4.498;2023-06-10T02:46:13;15.82;;;9.88;;
60436;SDS011;46289;51.992;4.498;2023-06-10T02:48:19;16.52;;;9.48;;
60436;SDS011;46289;51.992;4.498;2023-06-10T02:50:25;13.38;;;9.10;;
60436;SDS011;46289;51.992;4.498;2023-06-10T02:52:30;15.63;;;9.55;;
60436;SDS011;46289;51.992;4.498;2023-06-10T02:54:38;12.73;;;8.82;;
60436;SDS011;46289;51.992;4.498;2023-06-10T02:56:43;16.65;;;9.65;;
60436;SDS011;46289;51.992;4.498;2023-06-10T02:58:51;15.90;;;9.35;;
60436;SDS011;46289;51.992;4.498;2023-06-10T03:01:00;16.25;;;10.05;;
60436;SDS011;46289;51.992;4.498;2023-06-10T03:03:05;16.48;;;9.10;;
60436;SDS011;46289;51.992;4.498;2023-06-10T03:05:12;18.58;;;9.32;;
60436;SDS011;46289;51.992;4.498;2023-06-10T03:07:18;13.65;;;8.98;;
60436;SDS011;46289;51.992;4.498;2023-06-10T03:09:26;17.05;;;9.40;;
60436;SDS011;46289;51.992;4.498;2023-06-10T03:11:31;14.98;;;9.00;;
60436;SDS011;46289;51.992;4.498;2023-06-10T03:13:38;16.20;;;9.30;;
60436;SDS011;46289;51.992;4.498;2023-06-10T03:15:42;15.25;;;9.57;;
60436;SDS011;46289;51.992;4.498;2023-06-10T03:17:50;16.40;;;9.60;;
60436;SDS011;46289;51.992;4.498;2023-06-10T03:19:56;14.82;;;8.75;;
60436;SDS011;46289;51.992;4.498;2023-06-10T03:22:07;15.13;;;8.95;;
60436;SDS011;46289;51.992;4.498;2023-06-10T03:24:14;15.32;;;8.63;;
60436;SDS011;46289;51.992;4.498;2023-06-10T03:26:19;15.05;;;8.52;;
60436;SDS011;46289;51.992;4.498;2023-06-10T03:28:29;22.70;;;10.60;;
60436;SDS011;46289;51.992;4.498;2023-06-10T03:30:34;16.15;;;9.02;;
60436;SDS011;46289;51.992;4.498;2023-06-10T03:32:39;13.35;;;7.90;;
60436;SDS011;46289;51.992;4.498;2023-06-10T03:34:47;14.68;;;9.02;;
60436;SDS011;46289;51.992;4.498;2023-06-10T03:36:53;14.45;;;8.10;;
60436;SDS011;46289;51.992;4.498;2023-06-10T03:38:59;14.55;;;8.60;;
60436;SDS011;46289;51.992;4.498;2023-06-10T03:41:04;15.88;;;8.27;;
60436;SDS011;46289;51.992;4.498;2023-06-10T03:43:09;16.00;;;8.60;;
60436;SDS011;46289;51.992;4.498;2023-06-10T03:45:16;17.83;;;8.80;;
60436;SDS011;46289;51.992;4.498;2023-06-10T03:47:22;15.48;;;8.95;;
60436;SDS011;46289;51.992;4.498;2023-06-10T03:49:27;15.88;;;8.02;;
60436;SDS011;46289;51.992;4.498;2023-06-10T03:51:37;15.30;;;8.40;;
60436;SDS011;46289;51.992;4.498;2023-06-10T03:53:42;16.23;;;8.60;;
60436;SDS011;46289;51.992;4.498;2023-06-10T03:55:47;16.08;;;8.80;;
60436;SDS011;46289;51.992;4.498;2023-06-10T03:57:52;14.32;;;9.10;;
60436;SDS011;46289;51.992;4.498;2023-06-10T03:59:57;13.05;;;7.80;;
60436;SDS011;46289;51.992;4.498;2023-06-10T04:02:05;16.17;;;8.65;;
60436;SDS011;46289;51.992;4.498;2023-06-10T04:04:12;15.35;;;8.48;;
60436;SDS011;46289;51.992;4.498;2023-06-10T04:06:18;14.50;;;7.97;;
60436;SDS011;46289;51.992;4.498;2023-06-10T04:08:27;15.75;;;8.20;;
60436;SDS011;46289;51.992;4.498;2023-06-10T04:10:33;15.77;;;8.60;;
60436;SDS011;46289;51.992;4.498;2023-06-10T04:12:38;13.63;;;7.93;;
60436;SDS011;46289;51.992;4.498;2023-06-10T04:14:43;15.60;;;8.18;;
60436;SDS011;46289;51.992;4.498;2023-06-10T04:16:49;17.80;;;8.77;;
60436;SDS011;46289;51.992;4.498;2023-06-10T04:18:54;14.00;;;8.20;;
60436;SDS011;46289;51.992;4.498;2023-06-10T04:21:01;16.60;;;8.68;;
60436;SDS011;46289;51.992;4.498;2023-06-10T04:23:06;17.42;;;8.63;;
60436;SDS011;46289;51.992;4.498;2023-06-10T04:25:14;16.48;;;8.32;;
60436;SDS011;46289;51.992;4.498;2023-06-10T04:27:19;17.42;;;8.77;;
60436;SDS011;46289;51.992;4.498;2023-06-10T04:29:28;15.85;;;9.00;;
60436;SDS011;46289;51.992;4.498;2023-06-10T04:31:33;17.30;;;8.65;;
60436;SDS011;46289;51.992;4.498;2023-06-10T04:33:38;15.45;;;8.10;;
60436;SDS011;46289;51.992;4.498;2023-06-10T04:35:43;18.52;;;8.43;;
60436;SDS011;46289;51.992;4.498;2023-06-10T04:37:49;17.30;;;8.40;;
60436;SDS011;46289;51.992;4.498;2023-06-10T04:39:57;13.85;;;8.90;;
60436;SDS011;46289;51.992;4.498;2023-06-10T04:42:06;15.43;;;7.97;;
60436;SDS011;46289;51.992;4.498;2023-06-10T04:44:11;16.38;;;7.78;;
60436;SDS011;46289;51.992;4.498;2023-06-10T04:46:16;17.10;;;8.18;;
60436;SDS011;46289;51.992;4.498;2023-06-10T04:48:21;17.60;;;8.52;;
60436;SDS011;46289;51.992;4.498;2023-06-10T04:50:26;18.52;;;8.35;;
60436;SDS011;46289;51.992;4.498;2023-06-10T04:52:34;15.65;;;7.95;;
60436;SDS011;46289;51.992;4.498;2023-06-10T04:54:39;15.75;;;7.78;;
60436;SDS011;46289;51.992;4.498;2023-06-10T04:56:45;17.48;;;8.55;;
60436;SDS011;46289;51.992;4.498;2023-06-10T04:58:55;16.05;;;7.93;;
60436;SDS011;46289;51.992;4.498;2023-06-10T05:01:05;21.55;;;9.32;;
60436;SDS011;46289;51.992;4.498;2023-06-10T05:03:09;19.05;;;8.00;;
60436;SDS011;46289;51.992;4.498;2023-06-10T05:05:18;19.65;;;8.48;;
60436;SDS011;46289;51.992;4.498;2023-06-10T05:07:23;15.77;;;8.18;;
60436;SDS011;46289;51.992;4.498;2023-06-10T05:09:29;16.90;;;8.50;;
60436;SDS011;46289;51.992;4.498;2023-06-10T05:11:34;14.85;;;8.13;;
60436;SDS011;46289;51.992;4.498;2023-06-10T05:13:41;18.80;;;8.50;;
60436;SDS011;46289;51.992;4.498;2023-06-10T05:15:51;16.27;;;8.25;;
60436;SDS011;46289;51.992;4.498;2023-06-10T05:17:56;15.68;;;8.07;;
60436;SDS011;46289;51.992;4.498;2023-06-10T05:20:04;15.48;;;8.10;;
60436;SDS011;46289;51.992;4.498;2023-06-10T05:22:10;18.48;;;8.00;;
60436;SDS011;46289;51.992;4.498;2023-06-10T05:24:17;15.48;;;7.75;;
60436;SDS011;46289;51.992;4.498;2023-06-10T05:26:22;17.67;;;8.18;;
60436;SDS011;46289;51.992;4.498;2023-06-10T05:28:30;18.13;;;8.80;;
60436;SDS011;46289;51.992;4.498;2023-06-10T05:30:37;17.52;;;8.35;;
60436;SDS011;46289;51.992;4.498;2023-06-10T05:32:45;18.25;;;8.30;;
60436;SDS011;46289;51.992;4.498;2023-06-10T05:34:50;21.05;;;8.90;;
60436;SDS011;46289;51.992;4.498;2023-06-10T05:36:55;21.00;;;9.32;;
60436;SDS011;46289;51.992;4.498;2023-06-10T05:39:00;18.73;;;7.97;;
60436;SDS011;46289;51.992;4.498;2023-06-10T05:41:05;18.20;;;8.95;;
60436;SDS011;46289;51.992;4.498;2023-06-10T05:43:10;18.80;;;8.63;;
60436;SDS011;46289;51.992;4.498;2023-06-10T05:45:15;15.95;;;8.32;;
60436;SDS011;46289;51.992;4.498;2023-06-10T05:47:21;20.15;;;9.15;;
60436;SDS011;46289;51.992;4.498;2023-06-10T05:49:29;16.92;;;9.02;;
60436;SDS011;46289;51.992;4.498;2023-06-10T05:51:34;17.17;;;7.95;;
60436;SDS011;46289;51.992;4.498;2023-06-10T05:53:40;18.17;;;9.70;;
60436;SDS011;46289;51.992;4.498;2023-06-10T05:55:45;18.08;;;8.43;;
60436;SDS011;46289;51.992;4.498;2023-06-10T05:57:57;17.92;;;8.70;;
60436;SDS011;46289;51.992;4.498;2023-06-10T06:00:04;17.17;;;8.95;;
60436;SDS011;46289;51.992;4.498;2023-06-10T06:02:10;20.70;;;9.55;;
60436;SDS011;46289;51.992;4.498;2023-06-10T06:04:16;19.17;;;8.90;;
60436;SDS011;46289;51.992;4.498;2023-06-10T06:06:24;17.35;;;9.55;;
60436;SDS011;46289;51.992;4.498;2023-06-10T06:08:29;18.25;;;9.50;;
60436;SDS011;46289;51.992;4.498;2023-06-10T06:10:34;17.60;;;8.48;;
60436;SDS011;46289;51.992;4.498;2023-06-10T06:12:39;19.30;;;10.30;;
60436;SDS011;46289;51.992;4.498;2023-06-10T06:14:44;18.42;;;9.02;;
60436;SDS011;46289;51.992;4.498;2023-06-10T06:16:53;17.75;;;9.13;;
60436;SDS011;46289;51.992;4.498;2023-06-10T06:18:58;21.48;;;9.15;;
60436;SDS011;46289;51.992;4.498;2023-06-10T06:21:03;20.35;;;9.73;;
60436;SDS011;46289;51.992;4.498;2023-06-10T06:23:11;17.08;;;9.35;;
60436;SDS011;46289;51.992;4.498;2023-06-10T06:25:16;17.30;;;8.73;;
60436;SDS011;46289;51.992;4.498;2023-06-10T06:27:24;20.58;;;9.45;;
60436;SDS011;46289;51.992;4.498;2023-06-10T06:29:29;19.35;;;8.80;;
60436;SDS011;46289;51.992;4.498;2023-06-10T06:31:34;20.77;;;9.50;;
60436;SDS011;46289;51.992;4.498;2023-06-10T06:33:39;19.15;;;9.48;;
60436;SDS011;46289;51.992;4.498;2023-06-10T06:35:44;19.08;;;8.93;;
60436;SDS011;46289;51.992;4.498;2023-06-10T06:37:50;21.30;;;9.70;;
60436;SDS011;46289;51.992;4.498;2023-06-10T06:39:57;17.00;;;9.00;;
60436;SDS011;46289;51.992;4.498;2023-06-10T06:42:05;19.17;;;9.60;;
60436;SDS011;46289;51.992;4.498;2023-06-10T06:44:10;18.83;;;9.00;;
60436;SDS011;46289;51.992;4.498;2023-06-10T06:46:16;17.02;;;9.45;;
60436;SDS011;46289;51.992;4.498;2023-06-10T06:48:21;16.63;;;9.73;;
60436;SDS011;46289;51.992;4.498;2023-06-10T06:50:28;17.20;;;9.50;;
60436;SDS011;46289;51.992;4.498;2023-06-10T06:52:33;17.60;;;9.80;;
60436;SDS011;46289;51.992;4.498;2023-06-10T06:54:38;16.73;;;9.40;;
60436;SDS011;46289;51.992;4.498;2023-06-10T06:56:46;18.17;;;10.43;;
60436;SDS011;46289;51.992;4.498;2023-06-10T06:58:51;19.80;;;10.02;;
60436;SDS011;46289;51.992;4.498;2023-06-10T07:00:58;18.77;;;9.55;;
60436;SDS011;46289;51.992;4.498;2023-06-10T07:03:04;20.17;;;10.20;;
60436;SDS011;46289;51.992;4.498;2023-06-10T07:05:09;19.45;;;9.75;;
60436;SDS011;46289;51.992;4.498;2023-06-10T07:07:15;18.77;;;9.75;;
60436;SDS011;46289;51.992;4.498;2023-06-10T07:09:23;18.92;;;9.00;;
60436;SDS011;46289;51.992;4.498;2023-06-10T07:11:30;16.50;;;9.00;;
60436;SDS011;46289;51.992;4.498;2023-06-10T07:13:37;17.42;;;9.30;;
60436;SDS011;46289;51.992;4.498;2023-06-10T07:15:42;20.63;;;9.65;;
60436;SDS011;46289;51.992;4.498;2023-06-10T07:17:47;20.65;;;10.18;;
60436;SDS011;46289;51.992;4.498;2023-06-10T07:19:52;19.38;;;8.88;;
60436;SDS011;46289;51.992;4.498;2023-06-10T07:21:59;18.33;;;10.00;;
60436;SDS011;46289;51.992;4.498;2023-06-10T07:24:04;17.33;;;9.73;;
60436;SDS011;46289;51.992;4.498;2023-06-10T07:26:10;17.48;;;9.98;;
60436;SDS011;46289;51.992;4.498;2023-06-10T07:28:15;18.52;;;10.00;;
60436;SDS011;46289;51.992;4.498;2023-06-10T07:30:23;19.13;;;9.40;;
60436;SDS011;46289;51.992;4.498;2023-06-10T07:32:30;17.70;;;9.80;;
60436;SDS011;46289;51.992;4.498;2023-06-10T07:34:35;16.40;;;9.32;;
60436;SDS011;46289;51.992;4.498;2023-06-10T07:36:41;15.65;;;9.32;;
60436;SDS011;46289;51.992;4.498;2023-06-10T07:38:46;15.65;;;9.05;;
60436;SDS011;46289;51.992;4.498;2023-06-10T07:40:53;17.75;;;8.82;;
60436;SDS011;46289;51.992;4.498;2023-06-10T07:42:58;19.85;;;8.85;;
60436;SDS011;46289;51.992;4.498;2023-06-10T07:45:04;22.85;;;9.95;;
60436;SDS011;46289;51.992;4.498;2023-06-10T07:47:13;21.83;;;10.38;;
60436;SDS011;46289;51.992;4.498;2023-06-10T07:49:21;16.55;;;8.73;;
60436;SDS011;46289;51.992;4.498;2023-06-10T07:51:29;15.02;;;8.80;;
60436;SDS011;46289;51.992;4.498;2023-06-10T07:53:34;17.08;;;8.65;;
60436;SDS011;46289;51.992;4.498;2023-06-10T07:55:39;17.23;;;8.70;;
60436;SDS011;46289;51.992;4.498;2023-06-10T07:57:44;18.52;;;9.40;;
60436;SDS011;46289;51.992;4.498;2023-06-10T07:59:50;14.80;;;8.77;;
60436;SDS011;46289;51.992;4.498;2023-06-10T08:01:56;17.75;;;9.38;;
60436;SDS011;46289;51.992;4.498;2023-06-10T08:04:05;16.85;;;8.85;;
60436;SDS011;46289;51.992;4.498;2023-06-10T08:06:11;17.63;;;9.23;;
60436;SDS011;46289;51.992;4.498;2023-06-10T08:08:16;18.52;;;9.15;;
60436;SDS011;46289;51.992;4.498;2023-06-10T08:10:20;18.65;;;9.43;;
60436;SDS011;46289;51.992;4.498;2023-06-10T08:12:26;16.83;;;9.10;;
60436;SDS011;46289;51.992;4.498;2023-06-10T08:14:32;16.48;;;9.10;;
60436;SDS011;46289;51.992;4.498;2023-06-10T08:16:38;18.02;;;8.68;;
60436;SDS011;46289;51.992;4.498;2023-06-10T08:18:43;15.25;;;8.77;;
60436;SDS011;46289;51.992;4.498;2023-06-10T08:20:51;17.10;;;9.15;;
60436;SDS011;46289;51.992;4.498;2023-06-10T08:22:56;20.80;;;9.65;;
60436;SDS011;46289;51.992;4.498;2023-06-10T08:25:02;17.23;;;9.00;;
60436;SDS011;46289;51.992;4.498;2023-06-10T08:27:08;19.48;;;9.68;;
60436;SDS011;46289;51.992;4.498;2023-06-10T08:29:13;17.95;;;9.43;;
60436;SDS011;46289;51.992;4.498;2023-06-10T08:31:22;14.65;;;8.73;;
60436;SDS011;46289;51.992;4.498;2023-06-10T08:33:27;19.13;;;10.35;;
60436;SDS011;46289;51.992;4.498;2023-06-10T08:35:34;16.83;;;8.75;;
60436;SDS011;46289;51.992;4.498;2023-06-10T08:37:42;24.20;;;9.60;;
60436;SDS011;46289;51.992;4.498;2023-06-10T08:39:47;15.75;;;9.32;;
60436;SDS011;46289;51.992;4.498;2023-06-10T08:41:56;13.10;;;8.07;;
60436;SDS011;46289;51.992;4.498;2023-06-10T08:44:10;12.68;;;8.13;;
60436;SDS011;46289;51.992;4.498;2023-06-10T08:46:22;17.17;;;9.20;;
60436;SDS011;46289;51.992;4.498;2023-06-10T08:48:28;18.23;;;9.80;;
60436;SDS011;46289;51.992;4.498;2023-06-10T08:50:34;12.80;;;8.63;;
60436;SDS011;46289;51.992;4.498;2023-06-10T08:52:44;14.35;;;8.70;;
60436;SDS011;46289;51.992;4.498;2023-06-10T08:54:52;13.95;;;8.45;;
60436;SDS011;46289;51.992;4.498;2023-06-10T08:57:02;14.23;;;8.82;;
60436;SDS011;46289;51.992;4.498;2023-06-10T08:59:10;16.88;;;9.70;;
60436;SDS011;46289;51.992;4.498;2023-06-10T09:01:18;17.27;;;9.30;;
60436;SDS011;46289;51.992;4.498;2023-06-10T09:03:23;16.35;;;8.45;;
60436;SDS011;46289;51.992;4.498;2023-06-10T09:05:34;14.38;;;8.68;;
60436;SDS011;46289;51.992;4.498;2023-06-10T09:07:43;13.60;;;7.72;;
60436;SDS011;46289;51.992;4.498;2023-06-10T09:09:52;16.37;;;9.43;;
60436;SDS011;46289;51.992;4.498;2023-06-10T09:11:59;14.93;;;8.43;;
60436;SDS011;46289;51.992;4.498;2023-06-10T09:14:05;14.40;;;8.55;;
60436;SDS011;46289;51.992;4.498;2023-06-10T09:16:10;16.38;;;8.40;;
60436;SDS011;46289;51.992;4.498;2023-06-10T09:18:15;12.88;;;8.13;;
60436;SDS011;46289;51.992;4.498;2023-06-10T09:20:20;14.80;;;8.20;;
60436;SDS011;46289;51.992;4.498;2023-06-10T09:22:25;15.88;;;8.30;;
60436;SDS011;46289;51.992;4.498;2023-06-10T09:24:34;14.23;;;8.10;;
60436;SDS011;46289;51.992;4.498;2023-06-10T09:26:39;14.93;;;8.55;;
60436;SDS011;46289;51.992;4.498;2023-06-10T09:28:44;16.20;;;8.10;;
60436;SDS011;46289;51.992;4.498;2023-06-10T09:31:01;13.43;;;7.32;;
60436;SDS011;46289;51.992;4.498;2023-06-10T09:33:09;13.82;;;7.95;;
60436;SDS011;46289;51.992;4.498;2023-06-10T09:35:16;14.27;;;7.60;;
60436;SDS011;46289;51.992;4.498;2023-06-10T09:37:26;14.20;;;8.25;;
60436;SDS011;46289;51.992;4.498;2023-06-10T09:39:37;12.93;;;7.95;;
60436;SDS011;46289;51.992;4.498;2023-06-10T09:41:43;13.00;;;8.20;;
60436;SDS011;46289;51.992;4.498;2023-06-10T09:43:50;12.30;;;7.85;;
60436;SDS011;46289;51.992;4.498;2023-06-10T09:45:55;14.20;;;8.68;;
60436;SDS011;46289;51.992;4.498;2023-06-10T09:48:04;13.05;;;8.32;;
60436;SDS011;46289;51.992;4.498;2023-06-10T09:50:10;13.30;;;7.95;;
60436;SDS011;46289;51.992;4.498;2023-06-10T09:52:21;14.15;;;7.90;;
60436;SDS011;46289;51.992;4.498;2023-06-10T09:54:31;13.88;;;8.13;;
60436;SDS011;46289;51.992;4.498;2023-06-10T09:56:39;11.80;;;7.60;;
60436;SDS011;46289;51.992;4.498;2023-06-10T09:58:45;12.73;;;7.82;;
60436;SDS011;46289;51.992;4.498;2023-06-10T10:00:52;13.05;;;7.60;;
60436;SDS011;46289;51.992;4.498;2023-06-10T10:02:58;13.43;;;7.72;;
60436;SDS011;46289;51.992;4.498;2023-06-10T10:05:05;11.55;;;7.60;;
60436;SDS011;46289;51.992;4.498;2023-06-10T10:07:11;13.27;;;7.70;;
60436;SDS011;46289;51.992;4.498;2023-06-10T10:09:17;13.18;;;7.72;;
60436;SDS011;46289;51.992;4.498;2023-06-10T10:11:25;11.65;;;7.55;;
60436;SDS011;46289;51.992;4.498;2023-06-10T10:13:35;13.68;;;7.45;;
60436;SDS011;46289;51.992;4.498;2023-06-10T10:15:41;13.30;;;7.78;;
60436;SDS011;46289;51.992;4.498;2023-06-10T10:17:49;12.60;;;7.35;;
60436;SDS011;46289;51.992;4.498;2023-06-10T10:19:58;12.05;;;7.45;;
60436;SDS011;46289;51.992;4.498;2023-06-10T10:22:11;11.95;;;7.55;;
60436;SDS011;46289;51.992;4.498;2023-06-10T10:24:23;13.38;;;8.20;;
60436;SDS011;46289;51.992;4.498;2023-06-10T10:26:35;14.43;;;8.07;;
60436;SDS011;46289;51.992;4.498;2023-06-10T10:28:47;11.55;;;7.03;;
60436;SDS011;46289;51.992;4.498;2023-06-10T10:30:59;10.38;;;7.13;;
60436;SDS011;46289;51.992;4.498;2023-06-10T10:33:12;10.48;;;7.57;;
60436;SDS011;46289;51.992;4.498;2023-06-10T10:35:24;11.57;;;7.40;;
60436;SDS011;46289;51.992;4.498;2023-06-10T10:37:30;12.05;;;7.85;;
60436;SDS011;46289;51.992;4.498;2023-06-10T10:39:39;12.10;;;7.47;;
60436;SDS011;46289;51.992;4.498;2023-06-10T10:41:44;10.25;;;7.82;;
60436;SDS011;46289;51.992;4.498;2023-06-10T10:43:55;14.38;;;7.47;;
60436;SDS011;46289;51.992;4.498;2023-06-10T10:46:13;10.68;;;7.22;;
60436;SDS011;46289;51.992;4.498;2023-06-10T10:48:22;12.13;;;7.68;;
60436;SDS011;46289;51.992;4.498;2023-06-10T10:50:29;11.25;;;7.95;;
60436;SDS011;46289;51.992;4.498;2023-06-10T10:52:46;10.75;;;7.70;;
60436;SDS011;46289;51.992;4.498;2023-06-10T10:54:56;10.65;;;7.45;;
60436;SDS011;46289;51.992;4.498;2023-06-10T10:57:10;10.50;;;7.28;;
60436;SDS011;46289;51.992;4.498;2023-06-10T10:59:20;10.60;;;7.80;;
60436;SDS011;46289;51.992;4.498;2023-06-10T11:01:26;17.85;;;7.93;;
60436;SDS011;46289;51.992;4.498;2023-06-10T11:03:48;11.65;;;8.15;;
60436;SDS011;46289;51.992;4.498;2023-06-10T11:05:59;12.50;;;7.55;;
60436;SDS011;46289;51.992;4.498;2023-06-10T11:08:08;14.35;;;8.02;;
60436;SDS011;46289;51.992;4.498;2023-06-10T11:10:16;14.77;;;8.18;;
60436;SDS011;46289;51.992;4.498;2023-06-10T11:12:22;11.55;;;7.80;;
60436;SDS011;46289;51.992;4.498;2023-06-10T11:14:30;11.18;;;7.97;;
60436;SDS011;46289;51.992;4.498;2023-06-10T11:16:40;12.10;;;7.82;;
60436;SDS011;46289;51.992;4.498;2023-06-10T11:18:46;10.52;;;7.32;;
60436;SDS011;46289;51.992;4.498;2023-06-10T11:20:59;11.20;;;8.05;;
60436;SDS011;46289;51.992;4.498;2023-06-10T11:23:06;14.15;;;8.23;;
60436;SDS011;46289;51.992;4.498;2023-06-10T11:25:14;12.32;;;8.07;;
60436;SDS011;46289;51.992;4.498;2023-06-10T11:27:22;11.57;;;8.15;;
60436;SDS011;46289;51.992;4.498;2023-06-10T11:29:32;10.32;;;7.47;;
60436;SDS011;46289;51.992;4.498;2023-06-10T11:31:40;11.00;;;7.43;;
60436;SDS011;46289;51.992;4.498;2023-06-10T11:33:51;11.18;;;7.55;;
60436;SDS011;46289;51.992;4.498;2023-06-10T11:35:58;13.50;;;8.13;;
60436;SDS011;46289;51.992;4.498;2023-06-10T11:38:03;9.65;;;7.40;;
60436;SDS011;46289;51.992;4.498;2023-06-10T11:40:09;11.95;;;7.93;;
60436;SDS011;46289;51.992;4.498;2023-06-10T11:42:16;11.48;;;8.05;;
60436;SDS011;46289;51.992;4.498;2023-06-10T11:44:22;12.50;;;7.50;;
60436;SDS011;46289;51.992;4.498;2023-06-10T11:46:42;11.15;;;7.57;;
60436;SDS011;46289;51.992;4.498;2023-06-10T11:48:51;9.48;;;7.47;;
60436;SDS011;46289;51.992;4.498;2023-06-10T11:50:57;11.45;;;7.15;;
60436;SDS011;46289;51.992;4.498;2023-06-10T11:53:03;10.65;;;7.85;;
60436;SDS011;46289;51.992;4.498;2023-06-10T11:55:09;10.93;;;6.95;;
60436;SDS011;46289;51.992;4.498;2023-06-10T11:57:14;11.85;;;7.28;;
60436;SDS011;46289;51.992;4.498;2023-06-10T11:59:21;9.60;;;7.45;;
60436;SDS011;46289;51.992;4.498;2023-06-10T12:01:32;12.27;;;7.10;;
60436;SDS011;46289;51.992;4.498;2023-06-10T12:03:47;9.40;;;6.70;;
60436;SDS011;46289;51.992;4.498;2023-06-10T12:05:56;11.88;;;7.70;;
60436;SDS011;46289;51.992;4.498;2023-06-10T12:08:08;11.57;;;7.25;;
60436;SDS011;46289;51.992;4.498;2023-06-10T12:10:15;10.77;;;7.30;;
60436;SDS011;46289;51.992;4.498;2023-06-10T12:12:27;10.52;;;7.22;;
60436;SDS011;46289;51.992;4.498;2023-06-10T12:16:58;9.93;;;7.03;;
60436;SDS011;46289;51.992;4.498;2023-06-10T12:19:06;10.35;;;7.15;;
60436;SDS011;46289;51.992;4.498;2023-06-10T12:21:23;11.73;;;7.85;;
60436;SDS011;46289;51.992;4.498;2023-06-10T12:23:31;9.30;;;7.32;;
60436;SDS011;46289;51.992;4.498;2023-06-10T12:25:37;12.27;;;7.20;;
60436;SDS011;46289;51.992;4.498;2023-06-10T12:27:49;10.43;;;7.53;;
60436;SDS011;46289;51.992;4.498;2023-06-10T12:29:56;10.55;;;7.50;;
60436;SDS011;46289;51.992;4.498;2023-06-10T12:32:06;12.15;;;7.60;;
60436;SDS011;46289;51.992;4.498;2023-06-10T12:34:17;10.23;;;6.90;;
60436;SDS011;46289;51.992;4.498;2023-06-10T12:36:22;11.18;;;7.68;;